Time;durP1;ratioP1;P1;durP2;ratioP2;P2;SDS_P1;SDS_P2;PMS_P1;PMS_P2;Temp;Humidity;BMP_temperature;BMP_pressure;BME280_temperature;BME280_humidity;BME280_pressure;Samples;Min_cycle;Max_cycle;Signal;HPM_P1;HPM_P2
2022/08/16 00:00:27;;;;;;;;;;;;;;;24.39;49.94;99592.91;5001216;28;7320;-73
2022/08/16 00:02:55;;;;;;;;;;;;;;;24.39;50.46;99590.28;4983542;28;7281;-73
2022/08/16 00:05:24;;;;;;;;;;;;;;;24.39;49.70;99591.16;5013807;28;8254;-73
2022/08/16 00:07:50;;;;;;;;;;;;;;;24.38;49.87;99586.78;5015142;28;7766;-72
2022/08/16 00:10:19;;;;;;;;;;;;;;;24.38;50.01;99596.41;4986002;28;7260;-73
2022/08/16 00:12:45;;;;;;;;;;;;;;;24.35;49.94;99592.09;4981912;28;7176;-73
2022/08/16 00:15:16;;;;;;;;;;;;;;;24.34;49.88;99597.41;4998865;28;7114;-73
2022/08/16 00:17:42;;;;;;;;;;;;;;;24.31;49.57;99593.09;4981888;28;7446;-73
2022/08/16 00:20:09;;;;;;;;;;;;;;;24.29;50.08;99586.16;5012092;28;6798;-73
2022/08/16 00:22:38;;;;;;;;;;;;;;;24.26;49.65;99590.56;5014080;28;6872;-73
2022/08/16 00:25:08;;;;;;;;;;;;;;;24.23;50.30;99590.59;5000099;28;8070;-73
2022/08/16 00:27:34;;;;;;;;;;;;;;;24.22;50.30;99599.34;4981904;28;6807;-73
2022/08/16 00:30:00;;;;;;;;;;;;;;;24.19;49.86;99604.66;4977487;28;7278;-73
2022/08/16 00:32:27;;;;;;;;;;;;;;;24.18;50.34;99608.19;5028414;28;7150;-73
2022/08/16 00:34:52;;;;;;;;;;;;;;;24.16;50.34;99606.47;5013108;28;6967;-73
2022/08/16 00:37:24;;;;;;;;;;;;;;;24.15;50.35;99610.88;5013434;28;6779;-73
2022/08/16 00:39:49;;;;;;;;;;;;;;;24.14;50.35;99611.75;4981820;28;6986;-73
2022/08/16 00:42:17;;;;;;;;;;;;;;;24.12;49.91;99613.53;5013639;28;6929;-73
2022/08/16 00:44:54;;;;;;;;;;;;;;;24.12;50.02;99618.78;4979098;28;7154;-73
2022/08/16 00:47:25;;;;;;;;;;;;;;;24.11;50.27;99622.28;4983606;28;6804;-73
2022/08/16 00:49:51;;;;;;;;;;;;;;;24.09;50.11;99621.47;4992615;28;7037;-73
2022/08/16 00:52:17;;;;;;;;;;;;;;;24.07;50.22;99620.63;4994064;28;6968;-73
2022/08/16 00:54:43;;;;;;;;;;;;;;;24.04;50.65;99618.94;5012056;28;6788;-73
2022/08/16 00:57:09;;;;;;;;;;;;;;;24.03;50.17;99622.41;5012205;28;6783;-73
2022/08/16 00:59:38;;;;;;;;;;;;;;;24.00;50.72;99620.72;5014127;28;6772;-73
2022/08/16 01:02:08;;;;;;;;;;;;;;;23.97;50.83;99618.16;4968139;28;8201;-73
2022/08/16 01:04:34;;;;;;;;;;;;;;;23.95;50.45;99616.47;4984028;28;6804;-73
2022/08/16 01:07:05;;;;;;;;;;;;;;;23.94;50.78;99618.22;4975681;28;7183;-73
2022/08/16 01:09:37;;;;;;;;;;;;;;;23.91;50.81;99609.59;4976849;28;6919;-73
2022/08/16 01:12:09;;;;;;;;;;;;;;;23.89;50.49;99622.69;5009918;28;7233;-73
2022/08/16 01:14:53;;;;;;;;;;;;;;;23.88;50.85;99620.97;5008558;28;7404;-73
2022/08/16 01:17:19;;;;;;;;;;;;;;;23.83;50.65;99617.56;5009770;28;6958;-72
2022/08/16 01:19:55;;;;;;;;;;;;;;;23.78;50.97;99609.81;5012307;28;7127;-73
2022/08/16 01:22:48;;;;;;;;;;;;;;;23.73;50.70;99619.50;4957650;28;6992;-73
2022/08/16 01:25:26;;;;;;;;;;;;;;;23.65;50.96;99619.63;4981252;28;6891;-73
2022/08/16 01:27:55;;;;;;;;;;;;;;;23.61;51.23;99623.22;5010041;28;6796;-73
2022/08/16 01:30:28;;;;;;;;;;;;;;;23.56;51.71;99623.28;4967411;28;7237;-73
2022/08/16 01:33:00;;;;;;;;;;;;;;;23.53;51.65;99625.09;5012564;28;7633;-73
2022/08/16 01:35:33;;;;;;;;;;;;;;;23.51;52.05;99613.81;4980085;28;7259;-72
2022/08/16 01:38:26;;;;;;;;;;;;;;;23.47;52.01;99615.59;4982083;28;7047;-72
2022/08/16 01:41:06;;;;;;;;;;;;;;;23.45;51.88;99617.41;4978533;28;6971;-72
2022/08/16 01:43:35;;;;;;;;;;;;;;;23.44;52.09;99616.53;4979349;28;7074;-73
2022/08/16 01:46:05;;;;;;;;;;;;;;;23.44;52.36;99611.28;4976130;28;6884;-73
2022/08/16 01:48:32;;;;;;;;;;;;;;;23.45;51.94;99617.41;4977736;28;7043;-73
2022/08/16 01:51:01;;;;;;;;;;;;;;;23.46;52.28;99613.00;5010669;28;6977;-73
2022/08/16 01:53:29;;;;;;;;;;;;;;;23.44;52.15;99616.53;5011188;28;7198;-73
2022/08/16 01:55:55;;;;;;;;;;;;;;;23.46;51.99;99618.25;4991622;28;6965;-73
2022/08/16 01:58:22;;;;;;;;;;;;;;;23.47;51.86;99612.13;5012980;28;6812;-73
2022/08/16 02:00:48;;;;;;;;;;;;;;;23.48;52.29;99617.34;5005406;28;6800;-73
2022/08/16 02:03:14;;;;;;;;;;;;;;;23.47;51.90;99613.00;5026896;28;7117;-73
2022/08/16 02:05:41;;;;;;;;;;;;;;;23.46;52.22;99616.50;5010563;28;6768;-73
2022/08/16 02:08:07;;;;;;;;;;;;;;;23.46;52.18;99613.88;5009257;28;6837;-73
2022/08/16 02:10:36;;;;;;;;;;;;;;;23.46;52.33;99619.13;5012473;28;7257;-73
2022/08/16 02:13:05;;;;;;;;;;;;;;;23.46;52.66;99613.88;5008768;28;6855;-72
2022/08/16 02:15:35;;;;;;;;;;;;;;;23.44;52.08;99606.06;4974729;28;6832;-72
2022/08/16 02:18:02;;;;;;;;;;;;;;;23.44;52.52;99611.28;4975745;28;6943;-72
2022/08/16 02:20:37;;;;;;;;;;;;;;;23.46;52.76;99618.25;5011862;28;6947;-72
2022/08/16 02:23:04;;;;;;;;;;;;;;;23.44;52.71;99608.69;5009497;28;6887;-73
2022/08/16 02:25:31;;;;;;;;;;;;;;;23.44;52.52;99610.44;5010397;28;6864;-72
2022/08/16 02:27:58;;;;;;;;;;;;;;;23.44;52.56;99608.69;4976467;28;7638;-73
2022/08/16 02:30:28;;;;;;;;;;;;;;;23.44;52.51;99607.84;5008906;28;7535;-73
2022/08/16 02:32:54;;;;;;;;;;;;;;;23.43;52.82;99603.50;4995772;28;6982;-73
2022/08/16 02:35:23;;;;;;;;;;;;;;;23.41;52.48;99605.25;4977745;28;7516;-73
2022/08/16 02:37:51;;;;;;;;;;;;;;;23.39;52.92;99602.69;4979018;28;7190;-73
2022/08/16 02:40:18;;;;;;;;;;;;;;;23.39;52.76;99607.03;5015320;28;6808;-73
2022/08/16 02:42:47;;;;;;;;;;;;;;;23.37;52.61;99601.84;4981552;28;7230;-73
2022/08/16 02:45:14;;;;;;;;;;;;;;;23.37;52.40;99603.59;4981150;28;7382;-73
2022/08/16 02:47:39;;;;;;;;;;;;;;;23.34;52.99;99599.28;5010226;28;6783;-73
2022/08/16 02:50:07;;;;;;;;;;;;;;;23.34;53.11;99604.50;4981691;28;6836;-73
2022/08/16 02:52:33;;;;;;;;;;;;;;;23.32;53.26;99603.66;4989316;28;8093;-73
2022/08/16 02:55:00;;;;;;;;;;;;;;;23.31;53.16;99612.41;4991895;28;6975;-73
2022/08/16 02:57:26;;;;;;;;;;;;;;;23.29;53.01;99603.75;4984465;28;7196;-73
2022/08/16 02:59:52;;;;;;;;;;;;;;;23.27;53.36;99602.84;4978548;28;6776;-73
2022/08/16 03:02:18;;;;;;;;;;;;;;;23.25;53.08;99595.06;4991921;28;6940;-73
2022/08/16 03:04:44;;;;;;;;;;;;;;;23.27;53.20;99605.47;4979979;28;6764;-73
2022/08/16 03:07:11;;;;;;;;;;;;;;;23.25;53.27;99596.78;4972055;28;6920;-72
2022/08/16 03:09:37;;;;;;;;;;;;;;;23.25;53.29;99594.19;5014501;28;6964;-72
2022/08/16 03:12:04;;;;;;;;;;;;;;;23.24;53.25;99597.69;5001548;28;7269;-72
2022/08/16 03:14:31;;;;;;;;;;;;;;;23.22;53.34;99597.69;4986469;28;6784;-73
2022/08/16 03:16:58;;;;;;;;;;;;;;;23.22;53.40;99600.31;4981738;28;6946;-73
2022/08/16 03:19:25;;;;;;;;;;;;;;;23.22;53.51;99599.47;5017147;28;7030;-73
2022/08/16 03:21:50;;;;;;;;;;;;;;;23.21;53.40;99611.66;5013529;28;7164;-73
2022/08/16 03:24:16;;;;;;;;;;;;;;;23.18;53.62;99598.66;5004249;28;6938;-72
2022/08/16 03:26:41;;;;;;;;;;;;;;;23.16;53.72;99598.66;4982865;28;6812;-73
2022/08/16 03:29:07;;;;;;;;;;;;;;;23.15;53.70;99598.72;5008968;28;7000;-73
2022/08/16 03:31:33;;;;;;;;;;;;;;;23.12;53.60;99594.38;4981909;28;8036;-73
2022/08/16 03:33:58;;;;;;;;;;;;;;;23.11;53.54;99603.13;4982497;28;6835;-73
2022/08/16 03:36:24;;;;;;;;;;;;;;;23.12;53.95;99609.19;5013689;28;7057;-73
2022/08/16 03:38:50;;;;;;;;;;;;;;;23.11;53.68;99612.69;4982782;28;6772;-73
2022/08/16 03:41:15;;;;;;;;;;;;;;;23.09;53.61;99609.25;5015665;28;7904;-73
2022/08/16 03:43:41;;;;;;;;;;;;;;;23.08;53.96;99612.75;4979982;28;6768;-74
2022/08/16 03:46:09;;;;;;;;;;;;;;;23.07;54.21;99619.72;4984779;28;6923;-74
2022/08/16 03:48:38;;;;;;;;;;;;;;;23.06;53.81;99625.00;4977773;28;6804;-73
2022/08/16 03:51:09;;;;;;;;;;;;;;;23.05;54.04;99620.66;5013649;28;6895;-73
2022/08/16 03:53:36;;;;;;;;;;;;;;;23.05;54.10;99615.44;4984826;28;6820;-74
2022/08/16 03:56:03;;;;;;;;;;;;;;;23.06;54.42;99620.63;5009998;28;7134;-74
2022/08/16 03:58:28;;;;;;;;;;;;;;;23.07;53.94;99616.25;5014023;28;7101;-74
2022/08/16 04:00:54;;;;;;;;;;;;;;;23.07;54.03;99627.56;5011496;28;7142;-74
2022/08/16 04:03:20;;;;;;;;;;;;;;;23.08;54.37;99629.31;4998202;28;7000;-74
2022/08/16 04:05:49;;;;;;;;;;;;;;;23.09;54.29;99623.19;5014038;28;6960;-74
2022/08/16 04:08:18;;;;;;;;;;;;;;;23.08;53.86;99626.69;4988000;28;6989;-74
2022/08/16 04:10:44;;;;;;;;;;;;;;;23.08;54.30;99628.44;4991740;28;6975;-74
2022/08/16 04:13:10;;;;;;;;;;;;;;;23.08;54.28;99634.53;5012766;28;6804;-74
2022/08/16 04:15:37;;;;;;;;;;;;;;;23.07;54.09;99632.78;4977719;28;6860;-73
2022/08/16 04:18:04;;;;;;;;;;;;;;;23.07;54.45;99640.63;4982976;28;6794;-73
2022/08/16 04:20:30;;;;;;;;;;;;;;;23.08;54.32;99645.00;4985459;28;7179;-73
2022/08/16 04:22:56;;;;;;;;;;;;;;;23.07;54.42;99645.84;4984762;28;7213;-73
2022/08/16 04:25:22;;;;;;;;;;;;;;;23.07;54.29;99637.16;4977610;28;7190;-73
2022/08/16 04:27:48;;;;;;;;;;;;;;;23.05;53.97;99646.78;5016378;28;6772;-73
2022/08/16 04:30:18;;;;;;;;;;;;;;;23.02;54.04;99645.94;4977495;28;7203;-74
2022/08/16 04:32:44;;;;;;;;;;;;;;;23.00;53.94;99646.84;4981543;28;6976;-73
2022/08/16 04:35:16;;;;;;;;;;;;;;;22.99;54.22;99650.38;5015072;28;6968;-73
2022/08/16 04:37:46;;;;;;;;;;;;;;;22.98;54.52;99651.22;4979744;28;7064;-74
2022/08/16 04:40:14;;;;;;;;;;;;;;;22.96;54.18;99645.16;4982919;28;6788;-74
2022/08/16 04:42:41;;;;;;;;;;;;;;;22.95;54.19;99652.16;4981094;28;6804;-74
2022/08/16 04:45:12;;;;;;;;;;;;;;;22.94;54.10;99644.34;5030113;28;7039;-74
2022/08/16 04:47:39;;;;;;;;;;;;;;;22.94;54.13;99646.94;5011653;28;7894;-74
2022/08/16 04:50:18;;;;;;;;;;;;;;;22.94;54.29;99649.56;5010194;28;7069;-74
2022/08/16 04:52:49;;;;;;;;;;;;;;;22.95;54.57;99659.13;4986723;28;6823;-74
2022/08/16 04:55:21;;;;;;;;;;;;;;;22.95;54.50;99656.50;5012433;28;6951;-74
2022/08/16 04:57:50;;;;;;;;;;;;;;;22.96;54.60;99658.22;5005771;28;6932;-74
2022/08/16 05:00:32;;;;;;;;;;;;;;;22.97;54.46;99657.34;4975891;28;7339;-73
2022/08/16 05:03:10;;;;;;;;;;;;;;;22.97;54.75;99660.81;4984090;28;6859;-73
2022/08/16 05:05:40;;;;;;;;;;;;;;;22.99;54.94;99655.59;5008106;28;7202;-73
2022/08/16 05:08:06;;;;;;;;;;;;;;;23.04;55.13;99656.38;4974176;28;6907;-73
2022/08/16 05:10:32;;;;;;;;;;;;;;;23.10;55.29;99658.91;4976782;28;6808;-73
2022/08/16 05:13:00;;;;;;;;;;;;;;;23.24;55.17;99676.09;5010982;28;7172;-73
2022/08/16 05:15:26;;;;;;;;;;;;;;;23.34;55.13;99677.69;4976606;28;6927;-73
2022/08/16 05:17:53;;;;;;;;;;;;;;;23.49;55.73;99678.34;5016204;28;6804;-73
2022/08/16 05:20:21;;;;;;;;;;;;;;;23.61;55.29;99672.91;5014771;28;6861;-73
2022/08/16 05:22:47;;;;;;;;;;;;;;;23.73;54.83;99674.44;5014912;28;6811;-73
2022/08/16 05:25:14;;;;;;;;;;;;;;;23.84;54.86;99667.25;4979753;28;6796;-73
2022/08/16 05:27:42;;;;;;;;;;;;;;;23.96;54.43;99673.16;4977423;28;7539;-73
2022/08/16 05:30:13;;;;;;;;;;;;;;;24.04;53.86;99683.44;4976218;28;6808;-73
2022/08/16 05:32:40;;;;;;;;;;;;;;;24.10;54.03;99686.88;4984467;28;11291;-73
2022/08/16 05:35:10;;;;;;;;;;;;;;;24.17;53.78;99691.97;5013517;28;7124;-74
2022/08/16 05:37:38;;;;;;;;;;;;;;;24.20;53.32;99687.53;5008654;28;7365;-74
2022/08/16 05:40:07;;;;;;;;;;;;;;;24.25;53.07;99682.22;4999656;28;7010;-74
2022/08/16 05:42:33;;;;;;;;;;;;;;;24.26;52.82;99690.03;4978661;28;7702;-74
2022/08/16 05:44:59;;;;;;;;;;;;;;;24.27;53.14;99685.66;4980368;28;6784;-74
2022/08/16 05:47:26;;;;;;;;;;;;;;;24.30;52.52;99689.97;5011457;28;6852;-74
2022/08/16 05:49:52;;;;;;;;;;;;;;;24.34;52.20;99691.66;4981876;28;6812;-74
2022/08/16 05:52:18;;;;;;;;;;;;;;;24.36;52.44;99692.47;5009045;28;7274;-74
2022/08/16 05:54:44;;;;;;;;;;;;;;;24.39;52.39;99695.91;5012114;28;7356;-74
2022/08/16 05:57:11;;;;;;;;;;;;;;;24.43;52.74;99704.53;5010199;28;6792;-74
2022/08/16 05:59:37;;;;;;;;;;;;;;;24.45;52.76;99700.16;5007389;28;6792;-74
2022/08/16 06:02:05;;;;;;;;;;;;;;;24.50;52.24;99706.13;5011189;28;7264;-74
2022/08/16 06:04:31;;;;;;;;;;;;;;;24.54;52.43;99699.97;4965182;28;6987;-74
2022/08/16 06:06:57;;;;;;;;;;;;;;;24.58;51.89;99700.75;4962260;28;7034;-74
2022/08/16 06:09:24;;;;;;;;;;;;;;;24.64;52.28;99699.75;4995026;28;7224;-75
2022/08/16 06:11:51;;;;;;;;;;;;;;;24.69;52.45;99696.16;4999224;28;7255;-74
2022/08/16 06:14:17;;;;;;;;;;;;;;;24.74;52.01;99693.41;4983164;28;6792;-74
2022/08/16 06:16:43;;;;;;;;;;;;;;;24.80;51.60;99695.06;5011874;28;6832;-73
2022/08/16 06:19:09;;;;;;;;;;;;;;;24.87;52.12;99695.78;5008581;28;6820;-73
2022/08/16 06:21:36;;;;;;;;;;;;;;;24.91;51.72;99689.56;5010825;28;7045;-73
2022/08/16 06:24:03;;;;;;;;;;;;;;;24.98;51.84;99696.41;4984424;28;6876;-73
2022/08/16 06:26:29;;;;;;;;;;;;;;;25.06;51.60;99702.34;5008504;28;6796;-73
2022/08/16 06:28:55;;;;;;;;;;;;;;;25.12;51.61;99706.56;5009848;28;6959;-73
2022/08/16 06:31:21;;;;;;;;;;;;;;;25.17;51.44;99706.47;4975356;28;7272;-73
2022/08/16 06:33:46;;;;;;;;;;;;;;;25.24;51.28;99706.28;4975995;28;6772;-74
2022/08/16 06:36:14;;;;;;;;;;;;;;;25.31;51.54;99711.38;4996829;28;6995;-74
2022/08/16 06:38:39;;;;;;;;;;;;;;;25.38;51.00;99726.06;4983129;28;7713;-74
2022/08/16 06:41:07;;;;;;;;;;;;;;;25.44;50.77;99717.19;5009824;28;6788;-74
2022/08/16 06:43:34;;;;;;;;;;;;;;;25.50;50.90;99717.09;4977999;28;6979;-74
2022/08/16 06:46:03;;;;;;;;;;;;;;;25.57;51.01;99721.25;4989988;28;7968;-74
2022/08/16 06:48:28;;;;;;;;;;;;;;;25.63;50.60;99723.75;5028217;28;7330;-74
2022/08/16 06:50:57;;;;;;;;;;;;;;;25.70;50.80;99723.59;5006504;28;6772;-74
2022/08/16 06:53:23;;;;;;;;;;;;;;;25.76;50.37;99723.41;5005338;28;7241;-74
2022/08/16 06:55:49;;;;;;;;;;;;;;;25.82;50.50;99717.13;5012413;28;6978;-74
2022/08/16 06:58:15;;;;;;;;;;;;;;;25.90;50.28;99725.69;5026117;28;6946;-74
2022/08/16 07:00:40;;;;;;;;;;;;;;;25.95;50.27;99734.31;5011165;28;7035;-74
2022/08/16 07:03:08;;;;;;;;;;;;;;;26.03;49.75;99732.34;5025739;28;8337;-74
2022/08/16 07:05:34;;;;;;;;;;;;;;;26.09;49.72;99733.94;5010557;28;6788;-74
2022/08/16 07:08:03;;;;;;;;;;;;;;;26.16;49.76;99738.09;4985245;28;7219;-74
2022/08/16 07:10:29;;;;;;;;;;;;;;;26.23;49.43;99740.59;4994865;28;8588;-74
2022/08/16 07:12:54;;;;;;;;;;;;;;;26.32;49.28;99742.97;5007835;28;6864;-74
2022/08/16 07:15:20;;;;;;;;;;;;;;;26.39;49.18;99741.91;4980573;28;6810;-74
2022/08/16 07:17:48;;;;;;;;;;;;;;;26.49;48.96;99745.13;4979659;28;6780;-74
2022/08/16 07:20:15;;;;;;;;;;;;;;;26.58;48.92;99747.47;5009069;28;6792;-74
2022/08/16 07:22:41;;;;;;;;;;;;;;;26.68;48.57;99749.84;5008157;28;6816;-75
2022/08/16 07:25:11;;;;;;;;;;;;;;;26.80;48.61;99748.63;5008761;28;6959;-74
2022/08/16 07:27:38;;;;;;;;;;;;;;;26.92;48.21;99752.69;5014935;28;7264;-74
2022/08/16 07:30:09;;;;;;;;;;;;;;;27.00;47.74;99751.53;4982405;28;6983;-74
2022/08/16 07:32:35;;;;;;;;;;;;;;;27.09;47.77;99746.91;4973577;28;7228;-74
2022/08/16 07:35:00;;;;;;;;;;;;;;;27.20;47.43;99752.69;4975168;28;6784;-74
2022/08/16 07:37:26;;;;;;;;;;;;;;;27.28;47.17;99757.69;5019217;28;7055;-74
2022/08/16 07:39:52;;;;;;;;;;;;;;;27.38;47.36;99751.25;4977960;28;7031;-74
2022/08/16 07:42:18;;;;;;;;;;;;;;;27.51;47.40;99764.00;5008863;28;6792;-74
2022/08/16 07:44:44;;;;;;;;;;;;;;;27.61;47.43;99752.28;4999388;28;7185;-74
2022/08/16 07:47:09;;;;;;;;;;;;;;;27.73;46.98;99748.41;4980425;28;6772;-74
2022/08/16 07:49:35;;;;;;;;;;;;;;;27.84;46.82;99751.53;5007910;28;6950;-74
2022/08/16 07:52:01;;;;;;;;;;;;;;;27.92;46.27;99751.25;4978327;28;6800;-74
2022/08/16 07:54:27;;;;;;;;;;;;;;;28.02;46.39;99754.44;5011934;28;6795;-74
2022/08/16 07:56:53;;;;;;;;;;;;;;;28.11;45.76;99755.88;4982627;28;6784;-74
2022/08/16 07:59:18;;;;;;;;;;;;;;;28.19;45.85;99758.25;4982964;28;7126;-75
2022/08/16 08:01:44;;;;;;;;;;;;;;;28.25;45.77;99753.66;5013835;28;6784;-74
2022/08/16 08:04:11;;;;;;;;;;;;;;;28.36;45.52;99755.88;4983459;28;7928;-74
2022/08/16 08:06:40;;;;;;;;;;;;;;;28.47;45.37;99754.63;4983195;28;6942;-74
2022/08/16 08:09:05;;;;;;;;;;;;;;;28.58;45.24;99757.72;4980039;28;7849;-74
2022/08/16 08:11:31;;;;;;;;;;;;;;;28.71;45.13;99755.47;4982646;28;6799;-74
2022/08/16 08:13:59;;;;;;;;;;;;;;;28.82;45.24;99752.44;4978561;28;7184;-74
2022/08/16 08:16:26;;;;;;;;;;;;;;;28.94;45.00;99752.00;4977413;28;7102;-74
2022/08/16 08:18:55;;;;;;;;;;;;;;;29.04;44.02;99741.09;4985985;28;6784;-76
2022/08/16 08:21:24;;;;;;;;;;;;;;;29.11;43.91;99753.13;4997815;28;7080;-75
2022/08/16 08:23:51;;;;;;;;;;;;;;;29.21;43.53;99754.47;5013806;28;7766;-74
2022/08/16 08:26:18;;;;;;;;;;;;;;;29.31;43.95;99749.69;4970720;28;6974;-74
2022/08/16 08:28:44;;;;;;;;;;;;;;;29.41;43.53;99760.72;4979378;28;6792;-75
2022/08/16 08:31:10;;;;;;;;;;;;;;;29.52;43.51;99758.53;4990921;28;7208;-74
2022/08/16 08:33:37;;;;;;;;;;;;;;;29.65;43.32;99758.03;5010216;28;6772;-74
2022/08/16 08:36:06;;;;;;;;;;;;;;;29.76;42.86;99763.72;4979302;28;6780;-74
2022/08/16 08:38:34;;;;;;;;;;;;;;;29.90;42.50;99778.09;4981675;28;6792;-74
2022/08/16 08:41:01;;;;;;;;;;;;;;;30.00;42.33;99771.50;5016758;28;6896;-75
2022/08/16 08:43:27;;;;;;;;;;;;;;;30.13;42.16;99782.44;5013661;28;6792;-75
2022/08/16 08:45:54;;;;;;;;;;;;;;;30.27;41.38;99780.94;4995168;28;6968;-74
2022/08/16 08:48:21;;;;;;;;;;;;;;;30.38;42.03;99775.19;4977901;28;6804;-74
2022/08/16 08:50:49;;;;;;;;;;;;;;;30.52;41.04;99783.38;4985447;28;6975;-74
2022/08/16 08:53:15;;;;;;;;;;;;;;;30.62;41.01;99787.31;4982792;28;6812;-74
2022/08/16 08:55:41;;;;;;;;;;;;;;;30.76;41.03;99794.66;5003933;28;7287;-74
2022/08/16 08:58:07;;;;;;;;;;;;;;;30.91;40.23;99792.22;5019341;28;6982;-74
2022/08/16 09:00:33;;;;;;;;;;;;;;;31.06;40.33;99790.63;5010416;28;6970;-74
2022/08/16 09:02:59;;;;;;;;;;;;;;;31.25;40.29;99795.94;5012333;28;8010;-75
2022/08/16 09:05:26;;;;;;;;;;;;;;;31.49;39.70;99790.38;5010140;28;6823;-74
2022/08/16 09:07:52;;;;;;;;;;;;;;;31.77;39.48;99793.44;5011248;28;6788;-74
2022/08/16 09:10:19;;;;;;;;;;;;;;;32.05;38.41;99779.69;5004554;28;8270;-74
2022/08/16 09:12:46;;;;;;;;;;;;;;;32.40;38.56;99778.78;5000352;28;7259;-74
2022/08/16 09:15:15;;;;;;;;;;;;;;;32.85;37.38;99783.47;4999869;28;6987;-74
2022/08/16 09:17:42;;;;;;;;;;;;;;;33.36;36.43;99777.97;4983929;28;6800;-74
2022/08/16 09:20:13;;;;;;;;;;;;;;;33.96;35.28;99776.31;5012155;28;8033;-74
2022/08/16 09:22:41;;;;;;;;;;;;;;;34.70;34.71;99764.75;4981326;28;6811;-75
2022/08/16 09:25:08;;;;;;;;;;;;;;;35.48;33.46;99768.66;4975742;28;6872;-74
2022/08/16 09:27:33;;;;;;;;;;;;;;;36.22;32.01;99760.13;5012988;28;7177;-74
2022/08/16 09:29:59;;;;;;;;;;;;;;;36.90;31.38;99759.81;5009287;28;6843;-75
2022/08/16 09:32:25;;;;;;;;;;;;;;;37.51;30.30;99763.38;5015979;28;6956;-75
2022/08/16 09:34:50;;;;;;;;;;;;;;;38.11;29.71;99759.78;4980510;28;6855;-75
2022/08/16 09:37:16;;;;;;;;;;;;;;;38.66;28.33;99759.06;4980921;28;6981;-75
2022/08/16 09:39:45;;;;;;;;;;;;;;;39.14;27.76;99758.72;4979962;28;6780;-75
2022/08/16 09:42:13;;;;;;;;;;;;;;;39.69;26.87;99752.38;5008003;28;6804;-75
2022/08/16 09:44:40;;;;;;;;;;;;;;;40.23;26.62;99744.22;5007425;28;7182;-75
2022/08/16 09:47:06;;;;;;;;;;;;;;;40.76;26.08;99746.78;5011493;28;6995;-75
2022/08/16 09:49:31;;;;;;;;;;;;;;;41.27;25.37;99741.34;4981439;28;6776;-75
2022/08/16 09:51:57;;;;;;;;;;;;;;;41.64;24.32;99752.25;4979257;28;6824;-75
2022/08/16 09:54:26;;;;;;;;;;;;;;;41.94;23.86;99751.31;4980276;28;6772;-75
2022/08/16 09:56:52;;;;;;;;;;;;;;;42.20;23.72;99749.66;4977830;28;6788;-75
2022/08/16 09:59:19;;;;;;;;;;;;;;;42.46;22.86;99750.84;4975600;28;7069;-75
2022/08/16 10:01:46;;;;;;;;;;;;;;;42.71;22.50;99746.59;5011308;28;7925;-75
2022/08/16 10:04:14;;;;;;;;;;;;;;;42.89;22.13;99753.84;5009267;28;7110;-75
2022/08/16 10:06:41;;;;;;;;;;;;;;;42.88;21.49;99752.13;5008464;28;6927;-75
2022/08/16 10:09:09;;;;;;;;;;;;;;;42.91;21.64;99749.16;4983859;28;6959;-75
2022/08/16 10:14:22;;;;;;;;;;;;;;;43.17;20.87;99753.78;4979125;28;6854;-75
2022/08/16 10:16:48;;;;;;;;;;;;;;;43.26;20.70;99755.53;4998080;28;6976;-75
2022/08/16 10:19:15;;;;;;;;;;;;;;;43.28;20.64;99753.56;5030310;28;7190;-75
2022/08/16 10:21:41;;;;;;;;;;;;;;;43.34;20.70;99757.50;4999411;28;8405;-75
2022/08/16 10:24:08;;;;;;;;;;;;;;;43.54;20.52;99757.31;4989409;28;6961;-75
2022/08/16 10:26:36;;;;;;;;;;;;;;;43.84;20.62;99758.69;5011283;28;8021;-75
2022/08/16 10:29:04;;;;;;;;;;;;;;;44.18;19.99;99745.41;5015389;28;6949;-75
2022/08/16 10:31:31;;;;;;;;;;;;;;;44.39;19.67;99751.22;4977157;28;7238;-75
2022/08/16 10:33:57;;;;;;;;;;;;;;;44.59;19.22;99750.97;5011748;28;6807;-75
2022/08/16 10:36:23;;;;;;;;;;;;;;;44.77;19.08;99747.31;4979297;28;7202;-75
2022/08/16 10:38:49;;;;;;;;;;;;;;;44.89;18.78;99756.78;5012273;28;6848;-75
2022/08/16 10:41:15;;;;;;;;;;;;;;;45.03;18.50;99752.59;5008316;28;7060;-75
2022/08/16 10:43:41;;;;;;;;;;;;;;;45.18;18.30;99760.88;4981023;28;7937;-75
2022/08/16 10:46:11;;;;;;;;;;;;;;;45.31;18.12;99764.94;5010649;28;7716;-75
2022/08/16 10:48:39;;;;;;;;;;;;;;;45.27;17.68;99763.59;4957716;28;6998;-75
2022/08/16 10:51:05;;;;;;;;;;;;;;;45.30;18.15;99757.84;5013494;28;6803;-75
2022/08/16 10:53:32;;;;;;;;;;;;;;;45.47;17.61;99764.94;4998054;28;7527;-75
2022/08/16 10:56:07;;;;;;;;;;;;;;;45.62;17.49;99769.69;4981686;28;6808;-75
2022/08/16 10:58:36;;;;;;;;;;;;;;;45.75;17.76;99774.56;4979492;28;7400;-75
2022/08/16 11:01:08;;;;;;;;;;;;;;;45.86;17.55;99776.06;4976241;28;7984;-75
2022/08/16 11:03:36;;;;;;;;;;;;;;;45.90;17.63;99778.25;5004290;28;7077;-75
2022/08/16 11:06:04;;;;;;;;;;;;;;;46.01;17.48;99771.63;4974776;28;7206;-75
2022/08/16 11:08:31;;;;;;;;;;;;;;;45.98;17.08;99780.13;5026156;28;7310;-75
2022/08/16 11:10:57;;;;;;;;;;;;;;;45.35;17.21;99777.09;5014485;28;6939;-75
2022/08/16 11:13:25;;;;;;;;;;;;;;;44.99;17.70;99764.75;5005569;28;7190;-75
2022/08/16 11:15:55;;;;;;;;;;;;;;;44.40;17.39;99774.50;5006310;28;6970;-75
2022/08/16 11:18:21;;;;;;;;;;;;;;;43.34;18.03;99788.97;4975609;28;8287;-75
2022/08/16 11:20:47;;;;;;;;;;;;;;;42.47;18.78;99788.34;4973934;28;6808;-75
2022/08/16 11:23:14;;;;;;;;;;;;;;;42.33;19.36;99786.16;4976618;28;7130;-75
2022/08/16 11:25:41;;;;;;;;;;;;;;;42.40;19.23;99779.22;5000826;28;6932;-75
2022/08/16 11:28:08;;;;;;;;;;;;;;;42.55;19.56;99778.72;5012184;28;6812;-75
2022/08/16 11:30:35;;;;;;;;;;;;;;;42.94;19.45;99786.59;4966696;28;6959;-75
2022/08/16 11:33:02;;;;;;;;;;;;;;;43.26;19.02;99782.50;5012919;28;7018;-75
2022/08/16 11:35:31;;;;;;;;;;;;;;;43.40;18.68;99791.06;4983621;28;6804;-75
2022/08/16 11:38:09;;;;;;;;;;;;;;;42.96;18.56;99787.28;5007745;28;7236;-75
2022/08/16 11:40:45;;;;;;;;;;;;;;;42.30;19.26;99784.63;4980156;28;6868;-75
2022/08/16 11:43:22;;;;;;;;;;;;;;;41.56;19.42;99787.03;5014524;28;6804;-75
2022/08/16 11:45:49;;;;;;;;;;;;;;;40.71;19.77;99787.47;4971194;28;7252;-75
2022/08/16 11:48:15;;;;;;;;;;;;;;;39.89;20.34;99795.44;5029596;28;6981;-74
2022/08/16 11:50:42;;;;;;;;;;;;;;;39.16;20.88;99801.44;4982542;28;7176;-74
2022/08/16 11:53:09;;;;;;;;;;;;;;;38.52;21.40;99801.16;5012513;28;7410;-74
2022/08/16 11:55:36;;;;;;;;;;;;;;;37.99;22.30;99807.88;4973950;28;6884;-75
2022/08/16 11:58:03;;;;;;;;;;;;;;;37.63;22.86;99807.06;5018720;28;7322;-75
2022/08/16 12:00:31;;;;;;;;;;;;;;;37.59;23.06;99802.94;5014223;28;7225;-75
2022/08/16 12:02:58;;;;;;;;;;;;;;;37.71;23.65;99799.31;4977421;28;7129;-75
2022/08/16 12:05:26;;;;;;;;;;;;;;;37.98;23.50;99808.84;5011104;28;8041;-75
2022/08/16 12:07:54;;;;;;;;;;;;;;;38.45;23.15;99810.63;4983648;28;6865;-75
2022/08/16 12:10:20;;;;;;;;;;;;;;;39.11;22.31;99804.50;4994021;28;7896;-74
2022/08/16 12:12:46;;;;;;;;;;;;;;;39.79;22.13;99802.53;4981296;28;6924;-74
2022/08/16 12:15:14;;;;;;;;;;;;;;;40.45;21.65;99800.56;5008794;28;6804;-75
2022/08/16 12:17:42;;;;;;;;;;;;;;;41.06;21.03;99798.75;5009234;28;6800;-73
2022/08/16 12:20:17;;;;;;;;;;;;;;;41.46;20.44;99796.94;4984881;28;6880;-74
2022/08/16 12:22:43;;;;;;;;;;;;;;;41.31;20.19;99792.00;5010417;28;6880;-74
2022/08/16 12:25:16;;;;;;;;;;;;;;;41.41;20.68;99796.50;5011108;28;9280;-74
2022/08/16 12:27:45;;;;;;;;;;;;;;;41.85;20.04;99794.22;5016139;28;6788;-74
2022/08/16 12:30:18;;;;;;;;;;;;;;;42.35;19.67;99800.31;4981733;28;7450;-74
2022/08/16 12:32:44;;;;;;;;;;;;;;;42.84;19.47;99783.06;5010065;28;11380;-74
2022/08/16 12:35:16;;;;;;;;;;;;;;;42.88;18.68;99789.84;4974931;28;6776;-74
2022/08/16 12:37:44;;;;;;;;;;;;;;;42.89;18.88;99783.47;4978726;28;6800;-74
2022/08/16 12:40:15;;;;;;;;;;;;;;;42.85;18.57;99779.38;5012892;28;6804;-74
2022/08/16 12:42:41;;;;;;;;;;;;;;;42.70;18.55;99776.34;5011380;28;6811;-74
2022/08/16 12:45:12;;;;;;;;;;;;;;;42.69;19.04;99783.63;5012795;28;7161;-74
2022/08/16 12:50:22;;;;;;;;;;;;;;;43.11;18.55;99771.41;4979101;28;7062;-74
2022/08/16 12:52:48;;;;;;;;;;;;;;;43.27;18.54;99773.44;5009550;28;7875;-74
2022/08/16 12:55:15;;;;;;;;;;;;;;;43.49;18.33;99771.25;5012589;28;6791;-74
2022/08/16 12:57:41;;;;;;;;;;;;;;;43.71;17.94;99771.75;5011906;28;6807;-74
2022/08/16 13:00:15;;;;;;;;;;;;;;;43.90;17.60;99778.81;5009966;28;6796;-75
2022/08/16 13:02:45;;;;;;;;;;;;;;;44.12;17.57;99776.56;5011712;28;11589;-75
2022/08/16 13:05:12;;;;;;;;;;;;;;;44.09;17.14;99775.03;4992959;28;6973;-75